sensor_id;sensor_type;location;lat;lon;timestamp;pressure;altitude;pressure_sealevel;temperature;humidity
43071;BME280;36278;47.952;21.714;2022-12-18T00:01:15;101684.47;;;0.24;84.68
43071;BME280;36278;47.952;21.714;2022-12-18T00:03:41;101690.72;;;0.11;82.98
43071;BME280;36278;47.952;21.714;2022-12-18T00:06:08;101696.84;;;0.07;85.28
43071;BME280;36278;47.952;21.714;2022-12-18T00:08:34;101686.44;;;0.08;85.54
43071;BME280;36278;47.952;21.714;2022-12-18T00:11:08;101701.00;;;0.23;84.63
43071;BME280;36278;47.952;21.714;2022-12-18T00:13:34;101709.59;;;0.34;84.53
43071;BME280;36278;47.952;21.714;2022-12-18T00:16:06;101709.50;;;0.40;83.91
43071;BME280;36278;47.952;21.714;2022-12-18T00:18:33;101704.19;;;0.48;84.17
43071;BME280;36278;47.952;21.714;2022-12-18T00:21:03;101714.53;;;0.55;83.68
43071;BME280;36278;47.952;21.714;2022-12-18T00:23:29;101712.78;;;0.56;83.85
43071;BME280;36278;47.952;21.714;2022-12-18T00:25:59;101714.53;;;0.57;82.37
43071;BME280;36278;47.952;21.714;2022-12-18T00:28:24;101718.09;;;0.48;82.41
43071;BME280;36278;47.952;21.714;2022-12-18T00:30:50;101724.19;;;0.49;83.47
43071;BME280;36278;47.952;21.714;2022-12-18T00:33:17;101738.03;;;0.52;82.50
43071;BME280;36278;47.952;21.714;2022-12-18T00:35:43;101749.41;;;0.47;84.11
43071;BME280;36278;47.952;21.714;2022-12-18T00:38:08;101747.53;;;0.56;85.11
43071;BME280;36278;47.952;21.714;2022-12-18T00:40:34;101754.44;;;0.62;84.90
43071;BME280;36278;47.952;21.714;2022-12-18T00:43:00;101751.03;;;0.59;85.00
43071;BME280;36278;47.952;21.714;2022-12-18T00:45:30;101757.09;;;0.59;85.33
43071;BME280;36278;47.952;21.714;2022-12-18T00:47:56;101754.50;;;0.59;83.88
43071;BME280;36278;47.952;21.714;2022-12-18T00:50:23;101763.16;;;0.60;83.94
43071;BME280;36278;47.952;21.714;2022-12-18T00:52:49;101767.53;;;0.59;82.82
43071;BME280;36278;47.952;21.714;2022-12-18T00:55:15;101770.97;;;0.61;83.55
43071;BME280;36278;47.952;21.714;2022-12-18T00:57:41;101778.78;;;0.61;83.15
43071;BME280;36278;47.952;21.714;2022-12-18T01:00:09;101783.19;;;0.58;83.33
43071;BME280;36278;47.952;21.714;2022-12-18T01:02:35;101786.78;;;0.46;83.66
43071;BME280;36278;47.952;21.714;2022-12-18T01:05:00;101787.78;;;0.31;82.60
43071;BME280;36278;47.952;21.714;2022-12-18T01:07:26;101787.81;;;0.30;84.08
43071;BME280;36278;47.952;21.714;2022-12-18T01:09:51;101801.75;;;0.24;83.41
43071;BME280;36278;47.952;21.714;2022-12-18T01:12:17;101799.19;;;0.21;84.91
43071;BME280;36278;47.952;21.714;2022-12-18T01:14:42;101811.31;;;0.23;84.02
43071;BME280;36278;47.952;21.714;2022-12-18T01:17:08;101808.69;;;0.26;84.44
43071;BME280;36278;47.952;21.714;2022-12-18T01:19:33;101805.28;;;0.20;83.53
43071;BME280;36278;47.952;21.714;2022-12-18T01:21:59;101808.94;;;0.01;84.63
43071;BME280;36278;47.952;21.714;2022-12-18T01:24:24;101784.66;;;-0.05;85.05
43071;BME280;36278;47.952;21.714;2022-12-18T01:26:50;101816.63;;;0.14;83.72
43071;BME280;36278;47.952;21.714;2022-12-18T01:29:15;101806.25;;;0.10;84.07
43071;BME280;36278;47.952;21.714;2022-12-18T01:31:41;101822.69;;;0.18;85.33
43071;BME280;36278;47.952;21.714;2022-12-18T01:34:06;101821.81;;;0.17;84.40
43071;BME280;36278;47.952;21.714;2022-12-18T01:36:34;101827.00;;;0.20;85.21
43071;BME280;36278;47.952;21.714;2022-12-18T01:39:02;101824.34;;;0.25;83.91
43071;BME280;36278;47.952;21.714;2022-12-18T01:41:29;101832.22;;;0.16;84.51
43071;BME280;36278;47.952;21.714;2022-12-18T01:44:53;101834.00;;;0.14;85.58
43071;BME280;36278;47.952;21.714;2022-12-18T01:50:10;101844.47;;;0.09;85.00
43071;BME280;36278;47.952;21.714;2022-12-18T01:52:43;101847.09;;;0.06;86.81
43071;BME280;36278;47.952;21.714;2022-12-18T01:55:11;101842.75;;;0.05;85.43
43071;BME280;36278;47.952;21.714;2022-12-18T01:57:38;101843.72;;;-0.05;84.55
43071;BME280;36278;47.952;21.714;2022-12-18T02:00:10;101853.28;;;-0.10;86.22
43071;BME280;36278;47.952;21.714;2022-12-18T02:02:36;101849.75;;;-0.03;86.31
43071;BME280;36278;47.952;21.714;2022-12-18T02:05:03;101858.44;;;0.01;85.12
43071;BME280;36278;47.952;21.714;2022-12-18T02:10:02;101859.31;;;-0.02;85.02
43071;BME280;36278;47.952;21.714;2022-12-18T02:12:48;101873.22;;;-0.05;85.65
43071;BME280;36278;47.952;21.714;2022-12-18T02:15:44;101880.16;;;-0.05;86.67
43071;BME280;36278;47.952;21.714;2022-12-18T02:18:19;101866.28;;;-0.09;85.28
43071;BME280;36278;47.952;21.714;2022-12-18T02:20:52;101880.16;;;-0.04;84.61
43071;BME280;36278;47.952;21.714;2022-12-18T02:26:25;101887.19;;;-0.13;87.22
43071;BME280;36278;47.952;21.714;2022-12-18T02:29:29;101883.69;;;-0.17;86.48
43071;BME280;36278;47.952;21.714;2022-12-18T02:31:59;101896.78;;;-0.23;86.78
43071;BME280;36278;47.952;21.714;2022-12-18T02:34:34;101892.47;;;-0.24;87.56
43071;BME280;36278;47.952;21.714;2022-12-18T02:37:04;101889.84;;;-0.22;86.41
43071;BME280;36278;47.952;21.714;2022-12-18T02:39:33;101907.22;;;-0.23;85.20
43071;BME280;36278;47.952;21.714;2022-12-18T02:41:59;101903.78;;;-0.33;86.23
43071;BME280;36278;47.952;21.714;2022-12-18T02:44:27;101908.94;;;-0.26;88.09
43071;BME280;36278;47.952;21.714;2022-12-18T02:46:53;101910.69;;;-0.24;87.55
43071;BME280;36278;47.952;21.714;2022-12-18T02:51:52;101919.38;;;-0.23;86.48
43071;BME280;36278;47.952;21.714;2022-12-18T02:57:09;101927.19;;;-0.30;87.55
43071;BME280;36278;47.952;21.714;2022-12-18T02:59:41;101928.91;;;-0.27;85.99
43071;BME280;36278;47.952;21.714;2022-12-18T03:02:33;101907.28;;;-0.37;86.63
43071;BME280;36278;47.952;21.714;2022-12-18T03:10:16;101929.91;;;-0.52;87.93
43071;BME280;36278;47.952;21.714;2022-12-18T03:12:48;101939.41;;;-0.45;87.68
43071;BME280;36278;47.952;21.714;2022-12-18T03:15:22;101935.94;;;-0.43;87.95
43071;BME280;36278;47.952;21.714;2022-12-18T03:17:54;101946.31;;;-0.32;87.67
43071;BME280;36278;47.952;21.714;2022-12-18T03:20:23;101938.50;;;-0.34;88.95
43071;BME280;36278;47.952;21.714;2022-12-18T03:22:55;101947.13;;;-0.27;87.02
43071;BME280;36278;47.952;21.714;2022-12-18T03:25:23;101950.59;;;-0.26;88.34
43071;BME280;36278;47.952;21.714;2022-12-18T03:27:54;101950.66;;;-0.33;87.23
43071;BME280;36278;47.952;21.714;2022-12-18T03:30:22;101953.25;;;-0.34;88.48
43071;BME280;36278;47.952;21.714;2022-12-18T03:32:53;101952.38;;;-0.35;88.31
43071;BME280;36278;47.952;21.714;2022-12-18T03:35:26;101954.16;;;-0.44;90.42
43071;BME280;36278;47.952;21.714;2022-12-18T03:37:53;101968.91;;;-0.45;88.48
43071;BME280;36278;47.952;21.714;2022-12-18T03:40:23;101976.72;;;-0.42;89.57
43071;BME280;36278;47.952;21.714;2022-12-18T03:42:59;101971.53;;;-0.45;90.33
43071;BME280;36278;47.952;21.714;2022-12-18T03:45:32;101968.06;;;-0.50;89.35
43071;BME280;36278;47.952;21.714;2022-12-18T03:48:07;101977.56;;;-0.41;88.41
43071;BME280;36278;47.952;21.714;2022-12-18T03:51:05;101994.09;;;-0.51;88.33
43071;BME280;36278;47.952;21.714;2022-12-18T03:56:22;102000.19;;;-0.59;88.37
43071;BME280;36278;47.952;21.714;2022-12-18T03:58:52;101999.38;;;-0.65;88.89
43071;BME280;36278;47.952;21.714;2022-12-18T04:01:21;102006.28;;;-0.60;88.77
43071;BME280;36278;47.952;21.714;2022-12-18T04:03:49;102014.09;;;-0.66;88.19
43071;BME280;36278;47.952;21.714;2022-12-18T04:06:16;102011.50;;;-0.61;88.74
43071;BME280;36278;47.952;21.714;2022-12-18T04:08:42;102012.34;;;-0.61;89.82
43071;BME280;36278;47.952;21.714;2022-12-18T04:11:08;102014.94;;;-0.59;89.21
43071;BME280;36278;47.952;21.714;2022-12-18T04:13:37;102025.38;;;-0.67;89.12
43071;BME280;36278;47.952;21.714;2022-12-18T04:16:03;102022.78;;;-0.65;90.50
43071;BME280;36278;47.952;21.714;2022-12-18T04:18:29;102030.59;;;-0.70;89.72
43071;BME280;36278;47.952;21.714;2022-12-18T04:20:55;102028.84;;;-0.75;90.29
43071;BME280;36278;47.952;21.714;2022-12-18T04:23:20;102025.41;;;-0.85;88.51
43071;BME280;36278;47.952;21.714;2022-12-18T04:25:47;102036.66;;;-0.77;89.82
43071;BME280;36278;47.952;21.714;2022-12-18T04:28:12;102044.47;;;-0.72;90.55
43071;BME280;36278;47.952;21.714;2022-12-18T04:30:38;102040.13;;;-0.75;90.12
43071;BME280;36278;47.952;21.714;2022-12-18T04:33:08;102043.63;;;-0.85;90.42
43071;BME280;36278;47.952;21.714;2022-12-18T04:35:34;102025.41;;;-0.99;89.68
43071;BME280;36278;47.952;21.714;2022-12-18T04:37:59;102036.69;;;-0.92;89.89
43071;BME280;36278;47.952;21.714;2022-12-18T04:40:25;102048.84;;;-0.87;90.24
43071;BME280;36278;47.952;21.714;2022-12-18T04:42:51;102056.63;;;-0.91;90.24
43071;BME280;36278;47.952;21.714;2022-12-18T04:45:16;102067.03;;;-0.82;91.45
43071;BME280;36278;47.952;21.714;2022-12-18T04:47:42;102054.03;;;-0.91;89.94
43071;BME280;36278;47.952;21.714;2022-12-18T04:50:07;102071.38;;;-0.92;89.41
43071;BME280;36278;47.952;21.714;2022-12-18T04:52:33;102068.78;;;-0.95;89.84
43071;BME280;36278;47.952;21.714;2022-12-18T04:54:58;102066.16;;;-1.07;90.93
43071;BME280;36278;47.952;21.714;2022-12-18T04:57:24;102069.63;;;-1.08;91.95
43071;BME280;36278;47.952;21.714;2022-12-18T04:59:49;102074.84;;;-1.13;89.85
43071;BME280;36278;47.952;21.714;2022-12-18T05:02:15;102088.72;;;-1.10;90.25
43071;BME280;36278;47.952;21.714;2022-12-18T05:04:40;102088.72;;;-1.12;90.60
43071;BME280;36278;47.952;21.714;2022-12-18T05:07:06;102085.25;;;-1.13;89.87
43071;BME280;36278;47.952;21.714;2022-12-18T05:09:31;102085.22;;;-1.06;90.36
43071;BME280;36278;47.952;21.714;2022-12-18T05:11:56;102097.38;;;-1.11;88.95
43071;BME280;36278;47.952;21.714;2022-12-18T05:14:22;102098.22;;;-1.26;86.81
43071;BME280;36278;47.952;21.714;2022-12-18T05:16:48;102093.00;;;-1.32;87.83
43071;BME280;36278;47.952;21.714;2022-12-18T05:19:14;102098.22;;;-1.37;87.93
43071;BME280;36278;47.952;21.714;2022-12-18T05:21:39;102119.88;;;-1.38;88.17
43071;BME280;36278;47.952;21.714;2022-12-18T05:24:05;102113.81;;;-1.35;87.71
43071;BME280;36278;47.952;21.714;2022-12-18T05:26:30;102119.00;;;-1.32;87.66
43071;BME280;36278;47.952;21.714;2022-12-18T05:28:55;102128.53;;;-1.37;88.00
43071;BME280;36278;47.952;21.714;2022-12-18T05:31:21;102132.88;;;-1.32;86.86
43071;BME280;36278;47.952;21.714;2022-12-18T05:33:50;102138.91;;;-1.44;86.55
43071;BME280;36278;47.952;21.714;2022-12-18T05:36:15;102141.50;;;-1.50;85.23
43071;BME280;36278;47.952;21.714;2022-12-18T05:38:41;102140.59;;;-1.59;86.11
43071;BME280;36278;47.952;21.714;2022-12-18T05:41:07;102146.63;;;-1.71;85.01
43071;BME280;36278;47.952;21.714;2022-12-18T05:43:35;102146.59;;;-1.79;85.77
43071;BME280;36278;47.952;21.714;2022-12-18T05:46:05;102157.91;;;-1.58;85.93
43071;BME280;36278;47.952;21.714;2022-12-18T05:48:31;102172.63;;;-1.66;84.75
43071;BME280;36278;47.952;21.714;2022-12-18T05:51:03;102176.97;;;-1.56;84.81
43071;BME280;36278;47.952;21.714;2022-12-18T05:53:29;102180.44;;;-1.62;86.18
43071;BME280;36278;47.952;21.714;2022-12-18T05:55:54;102170.06;;;-1.57;84.85
43071;BME280;36278;47.952;21.714;2022-12-18T05:58:24;102167.47;;;-1.50;83.59
43071;BME280;36278;47.952;21.714;2022-12-18T06:00:49;102181.31;;;-1.55;83.75
43071;BME280;36278;47.952;21.714;2022-12-18T06:03:15;102178.75;;;-1.51;83.68
43071;BME280;36278;47.952;21.714;2022-12-18T06:05:43;102192.63;;;-1.44;83.54
43071;BME280;36278;47.952;21.714;2022-12-18T06:08:09;102191.75;;;-1.49;83.92
43071;BME280;36278;47.952;21.714;2022-12-18T06:10:35;102195.16;;;-1.61;83.87
43071;BME280;36278;47.952;21.714;2022-12-18T06:13:01;102197.72;;;-1.68;83.94
43071;BME280;36278;47.952;21.714;2022-12-18T06:15:27;102208.94;;;-1.74;83.65
43071;BME280;36278;47.952;21.714;2022-12-18T06:17:52;102204.56;;;-1.83;84.25
43071;BME280;36278;47.952;21.714;2022-12-18T06:20:18;102208.00;;;-1.90;84.83
43071;BME280;36278;47.952;21.714;2022-12-18T06:22:44;102217.50;;;-1.90;83.23
43071;BME280;36278;47.952;21.714;2022-12-18T06:25:10;102212.25;;;-2.03;84.52
43071;BME280;36278;47.952;21.714;2022-12-18T06:27:35;102219.16;;;-2.05;85.03
43071;BME280;36278;47.952;21.714;2022-12-18T06:30:01;102213.19;;;-1.93;85.62
43071;BME280;36278;47.952;21.714;2022-12-18T06:32:27;102232.28;;;-1.82;83.94
43071;BME280;36278;47.952;21.714;2022-12-18T06:34:52;102234.81;;;-1.92;85.23
43071;BME280;36278;47.952;21.714;2022-12-18T06:37:19;102235.75;;;-1.86;84.70
43071;BME280;36278;47.952;21.714;2022-12-18T06:39:44;102238.38;;;-1.78;83.24
43071;BME280;36278;47.952;21.714;2022-12-18T06:42:09;102238.34;;;-1.81;83.65
43071;BME280;36278;47.952;21.714;2022-12-18T06:44:35;102232.38;;;-1.71;84.21
43071;BME280;36278;47.952;21.714;2022-12-18T06:47:00;102237.66;;;-1.54;83.26
43071;BME280;36278;47.952;21.714;2022-12-18T06:49:26;102241.91;;;-1.65;83.05
43071;BME280;36278;47.952;21.714;2022-12-18T06:51:51;102250.47;;;-1.82;84.00
43071;BME280;36278;47.952;21.714;2022-12-18T06:54:17;102253.06;;;-1.83;83.81
43071;BME280;36278;47.952;21.714;2022-12-18T06:56:45;102247.00;;;-1.85;84.47
43071;BME280;36278;47.952;21.714;2022-12-18T06:59:10;102256.53;;;-1.83;83.38
43071;BME280;36278;47.952;21.714;2022-12-18T07:01:39;102261.72;;;-1.81;83.83
43071;BME280;36278;47.952;21.714;2022-12-18T07:04:04;102266.22;;;-1.54;82.09
43071;BME280;36278;47.952;21.714;2022-12-18T07:06:29;102271.47;;;-1.44;81.86
43071;BME280;36278;47.952;21.714;2022-12-18T07:08:55;102285.34;;;-1.42;81.17
43071;BME280;36278;47.952;21.714;2022-12-18T07:11:21;102276.72;;;-1.33;81.03
43071;BME280;36278;47.952;21.714;2022-12-18T07:13:47;102292.34;;;-1.27;81.03
43071;BME280;36278;47.952;21.714;2022-12-18T07:16:19;102287.16;;;-1.24;80.55
43071;BME280;36278;47.952;21.714;2022-12-18T07:18:45;102288.09;;;-1.06;81.04
43071;BME280;36278;47.952;21.714;2022-12-18T07:21:13;102295.03;;;-1.08;80.65
43071;BME280;36278;47.952;21.714;2022-12-18T07:23:39;102300.25;;;-1.05;80.30
43071;BME280;36278;47.952;21.714;2022-12-18T07:26:11;102304.53;;;-1.15;80.01
43071;BME280;36278;47.952;21.714;2022-12-18T07:28:37;102305.34;;;-1.25;79.94
43071;BME280;36278;47.952;21.714;2022-12-18T07:31:08;102321.78;;;-1.38;79.93
43071;BME280;36278;47.952;21.714;2022-12-18T07:33:34;102316.50;;;-1.48;80.42
43071;BME280;36278;47.952;21.714;2022-12-18T07:36:04;102322.56;;;-1.47;79.50
43071;BME280;36278;47.952;21.714;2022-12-18T07:38:30;102320.03;;;-1.35;80.08
43071;BME280;36278;47.952;21.714;2022-12-18T07:41:03;102319.19;;;-1.34;80.31
43071;BME280;36278;47.952;21.714;2022-12-18T07:43:29;102321.75;;;-1.42;78.78
43071;BME280;36278;47.952;21.714;2022-12-18T07:45:54;102323.38;;;-1.60;79.26
43071;BME280;36278;47.952;21.714;2022-12-18T07:48:20;102345.19;;;-1.32;79.44
43071;BME280;36278;47.952;21.714;2022-12-18T07:50:45;102333.00;;;-1.44;79.95
43071;BME280;36278;47.952;21.714;2022-12-18T07:53:11;102345.19;;;-1.32;79.88
43071;BME280;36278;47.952;21.714;2022-12-18T07:55:36;102351.38;;;-1.12;78.18
43071;BME280;36278;47.952;21.714;2022-12-18T07:58:02;102356.63;;;-1.01;78.19
43071;BME280;36278;47.952;21.714;2022-12-18T08:00:29;102352.25;;;-1.07;78.27
43071;BME280;36278;47.952;21.714;2022-12-18T08:02:54;102356.53;;;-1.21;78.74
43071;BME280;36278;47.952;21.714;2022-12-18T08:05:20;102358.25;;;-1.22;79.03
43071;BME280;36278;47.952;21.714;2022-12-18T08:07:46;102349.56;;;-1.28;79.43
43071;BME280;36278;47.952;21.714;2022-12-18T08:10:11;102360.94;;;-1.03;77.87
43071;BME280;36278;47.952;21.714;2022-12-18T08:12:37;102361.84;;;-0.91;78.68
43071;BME280;36278;47.952;21.714;2022-12-18T08:15:03;102363.47;;;-1.17;78.01
43071;BME280;36278;47.952;21.714;2022-12-18T08:17:28;102369.53;;;-1.15;78.61
43071;BME280;36278;47.952;21.714;2022-12-18T08:19:53;102373.09;;;-1.05;76.90
43071;BME280;36278;47.952;21.714;2022-12-18T08:22:19;102371.31;;;-1.08;78.09
43071;BME280;36278;47.952;21.714;2022-12-18T08:24:44;102372.22;;;-1.03;76.00
43071;BME280;36278;47.952;21.714;2022-12-18T08:27:10;102374.78;;;-1.09;77.24
43071;BME280;36278;47.952;21.714;2022-12-18T08:29:35;102380.94;;;-0.96;75.71
43071;BME280;36278;47.952;21.714;2022-12-18T08:32:01;102390.50;;;-0.89;75.40
43071;BME280;36278;47.952;21.714;2022-12-18T08:34:26;102385.41;;;-0.65;75.26
43071;BME280;36278;47.952;21.714;2022-12-18T08:36:52;102389.75;;;-0.59;74.59
43071;BME280;36278;47.952;21.714;2022-12-18T08:39:17;102391.50;;;-0.52;74.61
43071;BME280;36278;47.952;21.714;2022-12-18T08:41:42;102396.75;;;-0.49;74.79
43071;BME280;36278;47.952;21.714;2022-12-18T08:44:28;102404.59;;;-0.38;75.05
43071;BME280;36278;47.952;21.714;2022-12-18T08:47:03;102396.75;;;-0.38;74.13
43071;BME280;36278;47.952;21.714;2022-12-18T08:49:29;102394.19;;;-0.29;73.85
43071;BME280;36278;47.952;21.714;2022-12-18T08:51:55;102404.56;;;-0.35;73.03
43071;BME280;36278;47.952;21.714;2022-12-18T08:54:22;102402.88;;;-0.19;74.31
43071;BME280;36278;47.952;21.714;2022-12-18T08:56:48;102410.72;;;-0.16;72.72
43071;BME280;36278;47.952;21.714;2022-12-18T08:59:15;102387.19;;;-0.44;73.77
43071;BME280;36278;47.952;21.714;2022-12-18T09:01:41;102405.41;;;-0.54;74.79
43071;BME280;36278;47.952;21.714;2022-12-18T09:04:09;102410.69;;;-0.30;74.07
43071;BME280;36278;47.952;21.714;2022-12-18T09:06:34;102408.09;;;-0.09;72.19
43071;BME280;36278;47.952;21.714;2022-12-18T09:09:00;102406.31;;;-0.34;71.67
43071;BME280;36278;47.952;21.714;2022-12-18T09:11:26;102403.78;;;-0.13;73.20
43071;BME280;36278;47.952;21.714;2022-12-18T09:13:53;102420.28;;;0.05;71.12
43071;BME280;36278;47.952;21.714;2022-12-18T09:16:19;102404.66;;;0.14;71.87
43071;BME280;36278;47.952;21.714;2022-12-18T09:18:46;102411.66;;;0.33;69.87
43071;BME280;36278;47.952;21.714;2022-12-18T09:21:14;102422.03;;;0.21;70.54
43071;BME280;36278;47.952;21.714;2022-12-18T09:23:39;102428.13;;;0.20;70.43
43071;BME280;36278;47.952;21.714;2022-12-18T09:26:05;102416.78;;;-0.11;71.38
43071;BME280;36278;47.952;21.714;2022-12-18T09:28:31;102435.91;;;0.08;72.52
43071;BME280;36278;47.952;21.714;2022-12-18T09:30:57;102428.97;;;-0.04;70.86
43071;BME280;36278;47.952;21.714;2022-12-18T09:33:22;102427.19;;;-0.19;71.34
43071;BME280;36278;47.952;21.714;2022-12-18T09:35:48;102425.47;;;-0.11;72.98
43071;BME280;36278;47.952;21.714;2022-12-18T09:38:17;102422.00;;;-0.01;72.77
43071;BME280;36278;47.952;21.714;2022-12-18T09:40:49;102433.31;;;0.15;72.37
43071;BME280;36278;47.952;21.714;2022-12-18T09:43:22;102427.25;;;0.48;70.98
43071;BME280;36278;47.952;21.714;2022-12-18T09:45:59;102432.47;;;0.82;69.62
43071;BME280;36278;47.952;21.714;2022-12-18T09:48:36;102438.56;;;0.78;69.98
43071;BME280;36278;47.952;21.714;2022-12-18T09:51:33;102435.06;;;0.83;69.75
43071;BME280;36278;47.952;21.714;2022-12-18T09:54:07;102438.50;;;1.07;68.34
43071;BME280;36278;47.952;21.714;2022-12-18T09:56:40;102428.06;;;1.15;68.93
43071;BME280;36278;47.952;21.714;2022-12-18T09:59:18;102447.09;;;1.41;67.39
43071;BME280;36278;47.952;21.714;2022-12-18T10:01:45;102442.78;;;1.28;67.38
43071;BME280;36278;47.952;21.714;2022-12-18T10:04:10;102442.03;;;0.75;68.93
43071;BME280;36278;47.952;21.714;2022-12-18T10:06:39;102438.56;;;0.60;71.10
43071;BME280;36278;47.952;21.714;2022-12-18T10:19:58;102430.72;;;0.78;68.98
43071;BME280;36278;47.952;21.714;2022-12-18T10:24:59;102430.69;;;0.99;69.31
43071;BME280;36278;47.952;21.714;2022-12-18T10:27:28;102421.09;;;1.04;67.34
43071;BME280;36278;47.952;21.714;2022-12-18T10:29:54;102428.91;;;1.13;68.74
43071;BME280;36278;47.952;21.714;2022-12-18T10:32:27;102426.31;;;1.10;67.96
43071;BME280;36278;47.952;21.714;2022-12-18T10:34:55;102430.63;;;1.24;68.27
43071;BME280;36278;47.952;21.714;2022-12-18T10:37:25;102419.38;;;1.06;67.55
43071;BME280;36278;47.952;21.714;2022-12-18T10:40:13;102429.81;;;1.02;69.33
43071;BME280;36278;47.952;21.714;2022-12-18T10:42:39;102427.94;;;1.37;68.17
43071;BME280;36278;47.952;21.714;2022-12-18T10:45:11;102421.84;;;1.48;66.57
43071;BME280;36278;47.952;21.714;2022-12-18T10:47:43;102422.75;;;1.28;67.72
43071;BME280;36278;47.952;21.714;2022-12-18T10:50:33;102431.44;;;1.41;67.35
43071;BME280;36278;47.952;21.714;2022-12-18T10:53:01;102417.50;;;1.47;68.85
43071;BME280;36278;47.952;21.714;2022-12-18T10:55:33;102423.59;;;1.47;66.92
43071;BME280;36278;47.952;21.714;2022-12-18T10:58:27;102427.03;;;1.52;67.06
43071;BME280;36278;47.952;21.714;2022-12-18T11:03:58;102428.69;;;1.62;66.16
43071;BME280;36278;47.952;21.714;2022-12-18T11:06:24;102430.56;;;1.42;67.67
43071;BME280;36278;47.952;21.714;2022-12-18T11:11:28;102437.50;;;1.43;66.19
43071;BME280;36278;47.952;21.714;2022-12-18T11:16:22;102430.50;;;1.56;66.92
43071;BME280;36278;47.952;21.714;2022-12-18T11:18:48;102428.72;;;1.64;66.27
43071;BME280;36278;47.952;21.714;2022-12-18T11:21:14;102425.25;;;1.59;67.93
43071;BME280;36278;47.952;21.714;2022-12-18T11:23:50;102429.72;;;1.38;67.26
43071;BME280;36278;47.952;21.714;2022-12-18T11:26:17;102443.63;;;1.30;67.12
43071;BME280;36278;47.952;21.714;2022-12-18T11:28:49;102435.03;;;0.97;68.19
43071;BME280;36278;47.952;21.714;2022-12-18T11:31:27;102431.59;;;0.77;67.48
43071;BME280;36278;47.952;21.714;2022-12-18T11:34:11;102435.97;;;0.73;69.15
43071;BME280;36278;47.952;21.714;2022-12-18T11:36:42;102428.13;;;0.75;69.15
43071;BME280;36278;47.952;21.714;2022-12-18T11:39:33;102428.06;;;1.02;68.70
43071;BME280;36278;47.952;21.714;2022-12-18T11:42:14;102426.31;;;1.07;69.58
43071;BME280;36278;47.952;21.714;2022-12-18T11:44:58;102426.31;;;1.15;68.65
43071;BME280;36278;47.952;21.714;2022-12-18T11:51:04;102419.00;;;1.90;65.35
43071;BME280;36278;47.952;21.714;2022-12-18T11:53:34;102422.53;;;1.80;67.81
43071;BME280;36278;47.952;21.714;2022-12-18T11:56:21;102423.50;;;1.65;67.79
43071;BME280;36278;47.952;21.714;2022-12-18T11:59:00;102421.75;;;1.66;66.65
43071;BME280;36278;47.952;21.714;2022-12-18T12:01:41;102423.44;;;1.73;67.65
43071;BME280;36278;47.952;21.714;2022-12-18T12:09:47;102422.66;;;1.53;67.45
43071;BME280;36278;47.952;21.714;2022-12-18T12:15:57;102411.41;;;1.40;68.15
43071;BME280;36278;47.952;21.714;2022-12-18T12:18:05;102419.16;;;1.58;67.15
43071;BME280;36278;47.952;21.714;2022-12-18T12:23:26;102410.06;;;2.22;64.39
43071;BME280;36278;47.952;21.714;2022-12-18T12:26:22;102411.56;;;2.50;64.34
43071;BME280;36278;47.952;21.714;2022-12-18T12:39:40;102410.81;;;2.38;64.28
43071;BME280;36278;47.952;21.714;2022-12-18T12:45:16;102417.75;;;2.40;65.51
43071;BME280;36278;47.952;21.714;2022-12-18T12:47:45;102410.66;;;2.56;62.97
43071;BME280;36278;47.952;21.714;2022-12-18T12:50:15;102415.97;;;2.44;64.29
43071;BME280;36278;47.952;21.714;2022-12-18T12:52:52;102414.47;;;2.14;64.46
43071;BME280;36278;47.952;21.714;2022-12-18T12:55:28;102427.47;;;2.24;64.89
43071;BME280;36278;47.952;21.714;2022-12-18T13:00:56;102433.56;;;2.25;63.73
43071;BME280;36278;47.952;21.714;2022-12-18T13:06:15;102421.34;;;2.29;65.07
43071;BME280;36278;47.952;21.714;2022-12-18T13:08:57;102440.16;;;2.72;64.82
43071;BME280;36278;47.952;21.714;2022-12-18T13:11:44;102430.88;;;2.33;65.03
43071;BME280;36278;47.952;21.714;2022-12-18T13:14:32;102442.38;;;2.12;67.32
43071;BME280;36278;47.952;21.714;2022-12-18T13:20:07;102440.00;;;1.72;68.14
43071;BME280;36278;47.952;21.714;2022-12-18T13:22:48;102466.19;;;1.58;69.46
43071;BME280;36278;47.952;21.714;2022-12-18T13:25:36;102466.22;;;1.46;69.37
43071;BME280;36278;47.952;21.714;2022-12-18T13:28:16;102467.09;;;1.48;69.15
43071;BME280;36278;47.952;21.714;2022-12-18T13:43:31;102481.09;;;1.13;68.78
43071;BME280;36278;47.952;21.714;2022-12-18T13:48:26;102488.97;;;0.97;71.76
43071;BME280;36278;47.952;21.714;2022-12-18T13:51:13;102487.22;;;0.96;71.35
43071;BME280;36278;47.952;21.714;2022-12-18T13:53:46;102482.03;;;0.79;71.13
43071;BME280;36278;47.952;21.714;2022-12-18T13:56:30;102493.31;;;0.93;71.46
43071;BME280;36278;47.952;21.714;2022-12-18T14:01:46;102514.19;;;0.89;70.14
43071;BME280;36278;47.952;21.714;2022-12-18T14:04:28;102516.81;;;0.82;71.19
43071;BME280;36278;47.952;21.714;2022-12-18T14:07:03;102515.94;;;0.71;71.48
43071;BME280;36278;47.952;21.714;2022-12-18T14:09:31;102517.69;;;0.75;72.55
43071;BME280;36278;47.952;21.714;2022-12-18T14:12:00;102524.66;;;0.67;72.28
43071;BME280;36278;47.952;21.714;2022-12-18T14:14:48;102538.53;;;0.62;72.96
43071;BME280;36278;47.952;21.714;2022-12-18T14:17:15;102540.28;;;0.72;72.34
43071;BME280;36278;47.952;21.714;2022-12-18T14:19:46;102547.25;;;0.70;72.36
43071;BME280;36278;47.952;21.714;2022-12-18T14:22:24;102547.25;;;0.76;72.81
43071;BME280;36278;47.952;21.714;2022-12-18T14:25:15;102555.06;;;0.71;72.65
43071;BME280;36278;47.952;21.714;2022-12-18T14:27:50;102554.19;;;0.65;73.03
43071;BME280;36278;47.952;21.714;2022-12-18T14:30:35;102559.41;;;0.72;71.93
43071;BME280;36278;47.952;21.714;2022-12-18T14:33:11;102563.75;;;0.79;72.08
43071;BME280;36278;47.952;21.714;2022-12-18T14:36:01;102561.16;;;0.75;71.67
43071;BME280;36278;47.952;21.714;2022-12-18T14:38:37;102562.03;;;0.69;72.01